Time;durP1;ratioP1;P1;durP2;ratioP2;P2;SDS_P1;SDS_P2;PMS_P1;PMS_P2;Temp;Humidity;BMP_temperature;BMP_pressure;BME280_temperature;BME280_humidity;BME280_pressure;Samples;Min_cycle;Max_cycle;Signal;HPM_P1;HPM_P2
2021/01/03 00:02:00;;;;;;;2.40;1.20;;;4.70;84.40;;;;;;5036519;28;20033;-91
2021/01/03 00:04:26;;;;;;;1.70;0.73;;;4.70;84.40;;;;;;5021292;28;20029;-91
2021/01/03 00:06:53;;;;;;;2.20;0.77;;;4.70;84.40;;;;;;5019898;28;21802;-91
2021/01/03 00:09:21;;;;;;;0.93;0.57;;;4.70;84.40;;;;;;5017356;28;20045;-92
2021/01/03 00:11:47;;;;;;;2.00;1.00;;;4.70;84.30;;;;;;5035887;28;20026;-92
2021/01/03 00:14:14;;;;;;;0.83;0.53;;;4.70;84.40;;;;;;5014939;28;20483;-91
2021/01/03 00:16:44;;;;;;;2.30;1.40;;;4.70;84.40;;;;;;5018463;28;20033;-90
2021/01/03 00:19:10;;;;;;;1.23;0.80;;;4.70;84.40;;;;;;5019433;28;20033;-91
2021/01/03 00:21:37;;;;;;;2.43;0.83;;;4.70;84.40;;;;;;5032016;28;20426;-92
2021/01/03 00:24:03;;;;;;;0.57;0.30;;;4.70;84.40;;;;;;5016996;28;20041;-91
2021/01/03 00:26:30;;;;;;;1.17;0.80;;;4.70;84.40;;;;;;5003184;28;20260;-91
2021/01/03 00:28:56;;;;;;;2.20;0.67;;;4.70;84.40;;;;;;5000832;28;20041;-92
2021/01/03 00:31:23;;;;;;;2.07;0.70;;;4.70;84.50;;;;;;5016650;28;20040;-90
2021/01/03 00:33:50;;;;;;;3.80;0.53;;;4.70;84.50;;;;;;5000853;28;20038;-92
2021/01/03 00:36:17;;;;;;;2.80;0.70;;;4.60;84.60;;;;;;5033227;28;20048;-91
2021/01/03 00:38:43;;;;;;;0.83;0.67;;;4.50;84.70;;;;;;5000587;28;20037;-92
2021/01/03 00:41:10;;;;;;;2.30;0.83;;;4.50;84.90;;;;;;4997973;28;20045;-91
2021/01/03 00:43:36;;;;;;;6.53;0.67;;;4.40;84.90;;;;;;5000705;28;20186;-91
2021/01/03 00:46:02;;;;;;;1.50;0.83;;;4.40;85.00;;;;;;5033381;28;20044;-91
2021/01/03 00:48:29;;;;;;;1.57;0.67;;;4.40;85.10;;;;;;5033801;28;20022;-92
2021/01/03 00:50:55;;;;;;;1.37;0.90;;;4.30;85.00;;;;;;5033689;28;20037;-92
2021/01/03 00:53:22;;;;;;;3.33;0.70;;;4.30;85.20;;;;;;5007276;28;20041;-92
2021/01/03 00:55:49;;;;;;;1.40;0.77;;;4.30;85.30;;;;;;5015361;28;20307;-92
2021/01/03 00:58:16;;;;;;;1.97;0.67;;;4.30;85.40;;;;;;5016449;28;20041;-92
2021/01/03 01:00:42;;;;;;;1.43;1.27;;;4.20;85.50;;;;;;5033220;28;20033;-92
2021/01/03 01:03:09;;;;;;;0.20;0.10;;;4.10;85.50;;;;;;5016682;28;20042;-92
2021/01/03 01:05:35;;;;;;;1.50;0.67;;;4.10;86.40;;;;;;5016834;28;20053;-92
2021/01/03 01:08:01;;;;;;;2.10;0.73;;;4.00;85.80;;;;;;5032990;28;20044;-90
2021/01/03 01:10:29;;;;;;;2.67;1.30;;;4.00;86.00;;;;;;5016395;28;20315;-92
2021/01/03 01:12:57;;;;;;;3.90;1.03;;;3.90;86.00;;;;;;5033128;28;20324;-91
2021/01/03 01:15:25;;;;;;;2.23;1.20;;;3.90;86.20;;;;;;5016028;28;20025;-91
2021/01/03 01:17:53;;;;;;;1.90;0.77;;;3.80;86.20;;;;;;5016591;28;20045;-91
2021/01/03 01:20:21;;;;;;;3.07;1.07;;;3.80;86.30;;;;;;5011731;28;20033;-92
2021/01/03 01:22:47;;;;;;;1.23;0.83;;;3.70;86.20;;;;;;5033795;28;20022;-92
2021/01/03 01:25:16;;;;;;;2.10;1.13;;;3.70;86.40;;;;;;5032614;28;20044;-90
2021/01/03 01:27:43;;;;;;;1.50;0.30;;;3.70;86.40;;;;;;5033015;28;20036;-91
2021/01/03 01:30:10;;;;;;;2.13;0.60;;;3.70;86.50;;;;;;5015730;28;20037;-92
2021/01/03 01:32:37;;;;;;;0.70;0.70;;;3.60;86.50;;;;;;5017723;28;20066;-91
2021/01/03 01:35:05;;;;;;;2.20;1.07;;;3.60;86.60;;;;;;5031189;28;20049;-91
2021/01/03 01:37:31;;;;;;;1.50;0.90;;;3.60;86.60;;;;;;5020511;28;20041;-93
2021/01/03 01:39:58;;;;;;;6.73;0.67;;;3.50;86.60;;;;;;5034326;28;20037;-91
2021/01/03 01:42:25;;;;;;;4.50;1.33;;;3.50;86.70;;;;;;5035880;28;20037;-91
2021/01/03 01:44:52;;;;;;;0.53;0.30;;;3.50;86.70;;;;;;5019998;28;20048;-92
2021/01/03 01:47:22;;;;;;;6.87;1.40;;;3.50;86.70;;;;;;5035846;28;20447;-93
2021/01/03 01:49:48;;;;;;;1.13;0.77;;;3.50;86.70;;;;;;5031996;28;20033;-90
2021/01/03 01:52:16;;;;;;;0.20;0.13;;;3.40;86.60;;;;;;5020467;28;20276;-91
2021/01/03 01:54:54;;;;;;;0.37;0.30;;;3.40;86.60;;;;;;5013543;28;20032;-90
2021/01/03 01:57:43;;;;;;;0.70;0.40;;;3.50;86.60;;;;;;5029090;28;20318;-91
2021/01/03 02:00:15;;;;;;;0.33;0.17;;;3.40;86.50;;;;;;5017336;28;20033;-91
2021/01/03 02:03:20;;;;;;;1.60;0.50;;;3.40;86.50;;;;;;5028876;28;20407;-94
2021/01/03 02:05:50;;;;;;;0.50;0.30;;;3.50;86.60;;;;;;5021328;28;20044;-92
2021/01/03 02:08:34;;;;;;;0.57;0.53;;;3.40;86.40;;;;;;5012205;28;20036;-91
2021/01/03 02:11:01;;;;;;;1.80;0.30;;;3.40;86.40;;;;;;5030705;28;20032;-93
2021/01/03 02:13:35;;;;;;;1.83;0.93;;;3.40;86.40;;;;;;5018844;28;20033;-91
2021/01/03 02:16:07;;;;;;;0.43;0.30;;;3.40;86.50;;;;;;5017465;28;20033;-90
2021/01/03 02:18:33;;;;;;;0.30;0.20;;;3.40;86.50;;;;;;5014095;28;20049;-91
2021/01/03 02:21:08;;;;;;;0.53;0.53;;;3.30;86.50;;;;;;5025972;28;20025;-91
2021/01/03 02:23:43;;;;;;;1.87;0.97;;;3.30;86.60;;;;;;5028515;28;20041;-92
2021/01/03 02:26:10;;;;;;;2.03;1.07;;;3.30;86.60;;;;;;5033255;28;20056;-93
2021/01/03 02:28:41;;;;;;;0.47;0.20;;;3.30;86.60;;;;;;5032262;28;20025;-91
2021/01/03 02:31:08;;;;;;;3.23;0.77;;;3.30;86.60;;;;;;4998668;28;20033;-92
2021/01/03 02:33:37;;;;;;;1.87;1.03;;;3.30;86.60;;;;;;5031052;28;20321;-92
2021/01/03 02:36:11;;;;;;;2.73;1.17;;;3.30;86.40;;;;;;5031506;28;20063;-90
2021/01/03 02:38:41;;;;;;;1.47;0.87;;;3.40;86.30;;;;;;5007116;28;20037;-90
2021/01/03 02:41:08;;;;;;;0.97;0.40;;;3.40;86.00;;;;;;5012616;28;20030;-93
2021/01/03 02:43:34;;;;;;;6.73;1.47;;;3.50;85.90;;;;;;5030262;28;20339;-92
2021/01/03 02:46:01;;;;;;;1.67;0.60;;;3.50;85.70;;;;;;5019510;28;20041;-94
2021/01/03 02:48:27;;;;;;;0.90;0.57;;;3.60;85.60;;;;;;5019190;28;20037;-93
2021/01/03 02:50:54;;;;;;;0.30;0.20;;;3.60;85.50;;;;;;4997499;28;20052;-91
2021/01/03 02:53:20;;;;;;;0.73;0.30;;;3.60;85.40;;;;;;5028532;28;20037;-92
2021/01/03 02:55:46;;;;;;;2.20;0.77;;;3.60;85.40;;;;;;5031624;28;20068;-93
2021/01/03 02:58:14;;;;;;;0.70;0.30;;;3.60;85.40;;;;;;5037468;28;20038;-92
2021/01/03 03:00:49;;;;;;;2.63;1.00;;;3.70;85.30;;;;;;5041413;28;20029;-92
2021/01/03 03:03:15;;;;;;;1.80;0.90;;;3.70;85.30;;;;;;5024143;28;20041;-92
2021/01/03 03:05:42;;;;;;;0.43;0.23;;;3.70;85.20;;;;;;5020780;28;20045;-91
2021/01/03 03:08:08;;;;;;;0.47;0.47;;;3.70;85.30;;;;;;5035316;28;20037;-93
2021/01/03 03:10:34;;;;;;;0.57;0.57;;;3.70;85.30;;;;;;5025868;28;20041;-91
2021/01/03 03:13:01;;;;;;;1.17;0.70;;;3.70;85.30;;;;;;5012973;28;20037;-90
2021/01/03 03:15:32;;;;;;;3.33;0.73;;;3.70;86.00;;;;;;5033461;28;20059;-92
2021/01/03 03:17:59;;;;;;;0.88;0.32;;;3.70;85.30;;;;;;5010737;28;20451;-92
2021/01/03 03:20:25;;;;;;;2.37;0.97;;;3.60;85.20;;;;;;5032041;28;20584;-92
2021/01/03 03:22:52;;;;;;;0.60;0.40;;;3.50;85.50;;;;;;5026459;28;20033;-92
2021/01/03 03:25:19;;;;;;;0.57;0.27;;;3.50;85.70;;;;;;5035079;28;20030;-91
2021/01/03 03:27:45;;;;;;;0.57;0.40;;;3.50;85.70;;;;;;5030701;28;20018;-90
2021/01/03 03:30:14;;;;;;;2.50;0.60;;;3.50;85.70;;;;;;5036698;28;20033;-90
2021/01/03 03:32:40;;;;;;;1.40;0.60;;;3.50;85.50;;;;;;5033484;28;20022;-93
2021/01/03 03:35:07;;;;;;;2.47;1.47;;;3.50;85.50;;;;;;5000715;28;20052;-93
2021/01/03 03:37:34;;;;;;;0.83;0.47;;;3.60;85.50;;;;;;5025797;28;20116;-91
2021/01/03 03:40:00;;;;;;;1.30;0.50;;;3.60;85.40;;;;;;5034811;28;20021;-93
2021/01/03 03:42:27;;;;;;;0.20;0.20;;;3.60;85.40;;;;;;4992916;28;20432;-93
2021/01/03 03:44:53;;;;;;;0.23;0.17;;;3.60;85.40;;;;;;5027900;28;20021;-90
2021/01/03 03:47:20;;;;;;;0.93;0.37;;;3.60;85.40;;;;;;4991142;28;20451;-92
2021/01/03 03:49:46;;;;;;;1.13;0.43;;;3.60;85.40;;;;;;5019140;28;20327;-89
2021/01/03 03:52:12;;;;;;;1.97;0.87;;;3.60;85.30;;;;;;5044947;28;20026;-91
2021/01/03 03:54:39;;;;;;;0.90;0.30;;;3.60;85.30;;;;;;5008262;28;20030;-93
2021/01/03 03:57:06;;;;;;;1.43;0.70;;;3.70;85.30;;;;;;5027399;28;20048;-92
2021/01/03 03:59:32;;;;;;;0.30;0.17;;;3.70;85.20;;;;;;5011092;28;20049;-91
2021/01/03 04:01:58;;;;;;;1.73;0.70;;;3.60;85.10;;;;;;5009356;28;20061;-92
2021/01/03 04:04:25;;;;;;;1.67;0.87;;;3.70;85.10;;;;;;5027541;28;20041;-92
2021/01/03 04:06:52;;;;;;;1.33;0.57;;;3.70;85.10;;;;;;5018777;28;20332;-91
2021/01/03 04:09:18;;;;;;;1.00;0.53;;;3.70;85.00;;;;;;5028863;28;20049;-92
2021/01/03 04:11:46;;;;;;;0.10;0.00;;;3.70;85.00;;;;;;5028767;28;20424;-92
2021/01/03 04:14:14;;;;;;;1.20;0.50;;;3.70;85.10;;;;;;5024585;28;20036;-92
2021/01/03 04:16:50;;;;;;;0.63;0.43;;;3.70;85.10;;;;;;5007757;28;20029;-92
2021/01/03 04:19:17;;;;;;;0.90;0.23;;;3.70;85.10;;;;;;5024579;28;20526;-92
2021/01/03 04:21:49;;;;;;;1.30;0.53;;;3.70;85.10;;;;;;5013463;28;20045;-91
2021/01/03 04:24:15;;;;;;;0.93;0.73;;;3.70;85.10;;;;;;5026783;28;20431;-91
2021/01/03 04:26:42;;;;;;;0.67;0.40;;;3.60;85.10;;;;;;5027932;28;20443;-92
2021/01/03 04:29:08;;;;;;;0.30;0.20;;;3.70;85.30;;;;;;5027686;28;20040;-92
2021/01/03 04:31:34;;;;;;;0.20;0.20;;;3.60;85.40;;;;;;5008518;28;20034;-91
2021/01/03 04:34:01;;;;;;;0.00;0.00;;;3.60;85.50;;;;;;5022950;28;20033;-94
2021/01/03 04:36:27;;;;;;;1.37;0.77;;;3.60;85.50;;;;;;5017537;28;20029;-93
2021/01/03 04:38:53;;;;;;;0.10;0.10;;;3.60;85.40;;;;;;5023312;28;20332;-92
2021/01/03 04:41:25;;;;;;;0.37;0.07;;;3.60;85.40;;;;;;5030905;28;20029;-93
2021/01/03 04:43:52;;;;;;;1.10;0.50;;;3.40;85.60;;;;;;5024110;28;20045;-93
2021/01/03 04:46:19;;;;;;;0.40;0.30;;;3.30;86.70;;;;;;5028833;28;20038;-91
2021/01/03 04:48:46;;;;;;;0.60;0.20;;;3.30;86.10;;;;;;5030559;28;20025;-92
2021/01/03 04:51:24;;;;;;;0.40;0.30;;;3.30;86.10;;;;;;5005765;28;20038;-92
2021/01/03 04:54:03;;;;;;;3.70;0.30;;;3.30;86.10;;;;;;5015818;28;20056;-91
2021/01/03 04:56:42;;;;;;;1.47;0.33;;;3.10;86.10;;;;;;5021651;28;20037;-89
2021/01/03 04:59:27;;;;;;;0.20;0.03;;;3.10;86.50;;;;;;5046800;28;20059;-89
2021/01/03 05:02:05;;;;;;;1.27;0.10;;;3.10;86.50;;;;;;5054487;28;20035;-90
2021/01/03 05:05:09;;;;;;;0.73;0.27;;;3.10;86.30;;;;;;5051932;28;20033;-91
2021/01/03 05:07:39;;;;;;;0.90;0.30;;;3.20;86.10;;;;;;5042552;28;20029;-91
2021/01/03 05:10:13;;;;;;;0.20;0.20;;;3.30;85.90;;;;;;5039963;28;20033;-89
2021/01/03 05:13:10;;;;;;;1.13;0.53;;;3.30;85.70;;;;;;5036154;28;20041;-90
2021/01/03 05:15:36;;;;;;;0.60;0.40;;;3.30;85.60;;;;;;5045651;28;20036;-90
2021/01/03 05:18:04;;;;;;;0.17;0.10;;;3.30;85.50;;;;;;5039943;28;20051;-92
2021/01/03 05:20:30;;;;;;;2.40;0.30;;;3.30;85.60;;;;;;5035655;28;20017;-89
2021/01/03 05:23:19;;;;;;;0.13;0.00;;;3.30;85.60;;;;;;5039549;28;20017;-89
2021/01/03 05:25:46;;;;;;;2.83;0.50;;;3.30;85.70;;;;;;5013314;28;20057;-91
2021/01/03 05:28:24;;;;;;;2.03;0.73;;;3.30;85.70;;;;;;5031930;28;20029;-90
2021/01/03 05:30:51;;;;;;;0.43;0.10;;;3.20;85.70;;;;;;5035074;28;20100;-90
2021/01/03 05:33:27;;;;;;;0.70;0.40;;;3.10;85.90;;;;;;5036824;28;20033;-89
2021/01/03 05:35:54;;;;;;;0.17;0.10;;;3.10;86.10;;;;;;5032351;28;20026;-91
2021/01/03 05:38:40;;;;;;;0.30;0.30;;;3.10;86.20;;;;;;5045759;28;20025;-90
2021/01/03 05:41:26;;;;;;;0.10;0.00;;;3.10;86.20;;;;;;5023202;28;20030;-90
2021/01/03 05:43:56;;;;;;;0.20;0.10;;;3.00;86.20;;;;;;5033887;28;20263;-90
2021/01/03 05:46:32;;;;;;;0.00;0.00;;;2.90;86.40;;;;;;5031309;28;20041;-88
2021/01/03 05:49:00;;;;;;;1.13;0.53;;;2.80;86.70;;;;;;5019807;28;20030;-91
2021/01/03 05:51:49;;;;;;;0.13;0.07;;;2.70;86.90;;;;;;5035315;28;20432;-91
2021/01/03 05:54:21;;;;;;;0.60;0.40;;;2.70;86.80;;;;;;5034214;28;20284;-90
2021/01/03 05:56:48;;;;;;;0.93;0.33;;;2.70;87.20;;;;;;5025334;28;20042;-90
2021/01/03 05:59:35;;;;;;;0.10;0.10;;;2.70;86.80;;;;;;5026212;28;20030;-88
2021/01/03 06:02:18;;;;;;;0.70;0.43;;;2.80;86.70;;;;;;5026707;28;20033;-90
2021/01/03 06:04:44;;;;;;;0.57;0.13;;;2.90;86.60;;;;;;5027853;28;20049;-89
2021/01/03 06:07:26;;;;;;;0.10;0.00;;;2.90;86.20;;;;;;5028205;28;20308;-91
2021/01/03 06:09:53;;;;;;;0.80;0.30;;;2.90;86.10;;;;;;5026200;28;20025;-89
2021/01/03 06:12:28;;;;;;;0.50;0.30;;;2.90;86.00;;;;;;5009507;28;20055;-89
2021/01/03 06:14:59;;;;;;;0.87;0.20;;;2.90;86.00;;;;;;5023355;28;20033;-90
2021/01/03 06:17:34;;;;;;;0.45;0.32;;;2.90;86.00;;;;;;5023492;28;20053;-91
2021/01/03 06:20:09;;;;;;;0.87;0.50;;;2.90;86.00;;;;;;5016483;28;20060;-90
2021/01/03 06:22:37;;;;;;;0.20;0.10;;;2.90;86.00;;;;;;5029706;28;20045;-89
2021/01/03 06:25:27;;;;;;;0.93;0.30;;;3.00;86.10;;;;;;5026899;28;20565;-91
2021/01/03 06:27:55;;;;;;;0.73;0.47;;;3.00;86.00;;;;;;5024360;28;20324;-88
2021/01/03 06:30:22;;;;;;;0.20;0.10;;;2.90;86.00;;;;;;5022736;28;20030;-88
2021/01/03 06:32:48;;;;;;;0.20;0.20;;;2.90;86.10;;;;;;5031434;28;20030;-88
2021/01/03 06:35:28;;;;;;;0.20;0.00;;;2.90;86.10;;;;;;5030638;28;20048;-88
2021/01/03 06:38:06;;;;;;;0.00;0.00;;;3.00;86.10;;;;;;5045424;28;20033;-90
2021/01/03 06:40:39;;;;;;;0.37;0.37;;;3.00;86.00;;;;;;5030356;28;20048;-88
2021/01/03 06:43:05;;;;;;;1.47;0.63;;;2.90;86.10;;;;;;5023365;28;20050;-89
2021/01/03 06:45:56;;;;;;;0.67;0.33;;;2.80;86.30;;;;;;5023772;28;20045;-88
2021/01/03 06:48:25;;;;;;;0.47;0.30;;;2.70;86.60;;;;;;5029680;28;20432;-88
2021/01/03 06:51:03;;;;;;;0.73;0.33;;;2.60;86.70;;;;;;5021757;28;20038;-87
2021/01/03 06:53:44;;;;;;;2.07;0.37;;;2.50;86.90;;;;;;5023557;28;20441;-87
2021/01/03 06:56:19;;;;;;;;;;;2.50;86.90;;;;;;5026878;28;20356;-91
2021/01/03 06:59:30;;;;;;;0.63;0.33;;;2.40;86.90;;;;;;5018999;28;19906;-90
2021/01/03 07:01:57;;;;;;;0.33;0.20;;;2.50;86.90;;;;;;5001921;28;20053;-91
2021/01/03 07:04:25;;;;;;;1.03;0.50;;;2.50;86.70;;;;;;5020129;28;20033;-91
2021/01/03 07:06:51;;;;;;;0.40;0.40;;;2.50;86.60;;;;;;5013076;28;20464;-87
2021/01/03 07:09:18;;;;;;;0.60;0.50;;;2.50;86.60;;;;;;5023724;28;20022;-90
2021/01/03 07:12:00;;;;;;;0.83;0.50;;;2.50;86.50;;;;;;5023766;28;20405;-89
2021/01/03 07:14:26;;;;;;;1.40;0.77;;;2.40;87.30;;;;;;5021219;28;20026;-88
2021/01/03 07:17:05;;;;;;;0.70;0.43;;;2.40;86.90;;;;;;5024697;28;20329;-88
2021/01/03 07:19:35;;;;;;;0.33;0.33;;;2.40;86.90;;;;;;5028968;28;20440;-89
2021/01/03 07:22:11;;;;;;;0.17;0.10;;;2.30;86.90;;;;;;5038381;28;20036;-90
2021/01/03 07:24:44;;;;;;;0.13;0.07;;;2.20;87.00;;;;;;5034032;28;20029;-87
2021/01/03 07:27:32;;;;;;;0.50;0.30;;;2.20;87.20;;;;;;5037996;28;20033;-90
2021/01/03 07:30:05;;;;;;;0.77;0.57;;;2.20;87.20;;;;;;5038365;28;20022;-88
2021/01/03 07:32:37;;;;;;;0.50;0.13;;;2.10;87.30;;;;;;5027173;28;20041;-87
2021/01/03 07:35:05;;;;;;;0.00;0.00;;;2.10;87.20;;;;;;5033838;28;20030;-90
2021/01/03 07:37:33;;;;;;;0.00;0.00;;;2.00;87.20;;;;;;5029693;28;20041;-88
2021/01/03 07:40:12;;;;;;;0.47;0.37;;;1.90;87.30;;;;;;5037991;28;20021;-88
2021/01/03 07:42:44;;;;;;;0.00;0.00;;;1.80;87.40;;;;;;5028723;28;20045;-91
2021/01/03 07:45:14;;;;;;;0.23;0.17;;;1.80;87.50;;;;;;5023239;28;20420;-89
2021/01/03 07:47:48;;;;;;;0.20;0.10;;;1.80;87.50;;;;;;5025016;28;20038;-88
2021/01/03 07:50:21;;;;;;;0.30;0.20;;;1.80;87.50;;;;;;5024958;28;20018;-91
2021/01/03 07:52:51;;;;;;;0.40;0.33;;;1.90;87.50;;;;;;5023507;28;20026;-86
2021/01/03 07:55:25;;;;;;;0.22;0.17;;;1.90;87.30;;;;;;5023015;28;20347;-87
2021/01/03 07:58:01;;;;;;;0.10;0.00;;;2.10;87.00;;;;;;5026524;28;20038;-91
2021/01/03 08:00:32;;;;;;;0.50;0.37;;;2.10;86.60;;;;;;5011849;28;20041;-92
2021/01/03 08:03:01;;;;;;;;;;;2.10;86.70;;;;;;5025727;28;20041;-90
2021/01/03 08:05:29;;;;;;;0.33;0.17;;;2.10;86.70;;;;;;5027225;28;19946;-87
2021/01/03 08:08:10;;;;;;;0.97;0.60;;;2.20;86.60;;;;;;5023236;28;20033;-89
2021/01/03 08:10:37;;;;;;;0.65;0.20;;;2.20;86.50;;;;;;5008916;28;20052;-89
2021/01/03 08:13:10;;;;;;;0.40;0.37;;;2.20;86.40;;;;;;5027432;28;20030;-89
2021/01/03 08:15:36;;;;;;;1.50;0.60;;;2.30;86.30;;;;;;4992918;28;20038;-90
2021/01/03 08:18:15;;;;;;;0.20;0.10;;;2.40;86.40;;;;;;5014264;28;20038;-90
2021/01/03 08:20:42;;;;;;;3.57;0.30;;;2.40;86.30;;;;;;5030312;28;20041;-89
2021/01/03 08:23:28;;;;;;;0.40;0.40;;;2.40;86.20;;;;;;5025343;28;20032;-90
2021/01/03 08:26:12;;;;;;;0.33;0.27;;;2.50;86.10;;;;;;5029518;28;20041;-93
2021/01/03 08:28:56;;;;;;;1.07;0.47;;;2.50;86.00;;;;;;5030639;28;20060;-90
2021/01/03 08:31:23;;;;;;;0.40;0.20;;;2.60;86.00;;;;;;5000565;28;20034;-88
2021/01/03 08:33:50;;;;;;;0.03;0.00;;;2.70;86.00;;;;;;5005781;28;20056;-88
2021/01/03 08:36:28;;;;;;;2.77;0.50;;;3.20;85.10;;;;;;5035543;28;20037;-91
2021/01/03 08:39:04;;;;;;;0.23;0.10;;;3.60;84.10;;;;;;5006596;28;20344;-87
2021/01/03 08:41:31;;;;;;;0.10;0.00;;;3.80;83.30;;;;;;5035680;28;20029;-89
2021/01/03 08:43:57;;;;;;;0.73;0.27;;;4.00;82.80;;;;;;5017855;28;20053;-89
2021/01/03 08:46:36;;;;;;;0.10;0.00;;;4.00;82.60;;;;;;5008647;28;20040;-89
2021/01/03 08:49:32;;;;;;;0.83;0.47;;;4.10;82.80;;;;;;5035360;28;20029;-93
2021/01/03 08:55:24;;;;;;;0.57;0.23;;;4.30;82.60;;;;;;5052775;22;20030;-91
2021/01/03 08:57:59;;;;;;;0.90;0.37;;;4.20;82.70;;;;;;5020676;28;20372;-91
2021/01/03 09:00:49;;;;;;;0.97;0.50;;;4.20;82.80;;;;;;4984729;28;20037;-91
2021/01/03 09:03:18;;;;;;;4.13;0.73;;;4.30;82.90;;;;;;5019747;28;20029;-89
2021/01/03 09:05:46;;;;;;;23.40;6.70;;;4.30;82.90;;;;;;5010627;28;20288;-89
2021/01/03 09:08:35;;;;;;;1.63;0.93;;;4.40;83.20;;;;;;5002734;28;20036;-89
2021/01/03 09:11:26;;;;;;;1.00;0.80;;;4.40;82.80;;;;;;5001905;28;20036;-88
2021/01/03 09:14:20;;;;;;;2.33;0.75;;;4.40;82.80;;;;;;5015177;28;20037;-87
2021/01/03 09:17:05;;;;;;;1.47;0.50;;;4.30;83.00;;;;;;4999592;28;20033;-87
2021/01/03 09:19:36;;;;;;;0.93;0.53;;;4.30;83.70;;;;;;5031958;28;20041;-86
2021/01/03 09:22:02;;;;;;;;;;;4.40;83.30;;;;;;5005388;28;20042;-87
2021/01/03 09:24:33;;;;;;;1.90;1.03;;;4.20;83.30;;;;;;4986632;28;19914;-87
2021/01/03 09:27:01;;;;;;;0.80;0.20;;;3.90;83.70;;;;;;5008452;28;20507;-87
2021/01/03 09:29:33;;;;;;;0.47;0.30;;;3.50;84.90;;;;;;5000848;28;20026;-87
2021/01/03 09:32:11;;;;;;;0.10;0.10;;;3.30;85.70;;;;;;5005911;28;20026;-86
2021/01/03 09:35:00;;;;;;;15.27;2.20;;;3.20;86.00;;;;;;5026092;28;20037;-85
2021/01/03 09:37:30;;;;;;;0.43;0.10;;;3.00;87.10;;;;;;5027979;28;20440;-87
2021/01/03 09:40:17;;;;;;;0.10;0.10;;;2.80;86.50;;;;;;5028818;28;20048;-87
2021/01/03 09:43:01;;;;;;;0.97;0.33;;;2.70;86.70;;;;;;5030835;28;20046;-86
2021/01/03 09:45:33;;;;;;;0.13;0.07;;;2.60;87.10;;;;;;5024288;28;20022;-87
2021/01/03 09:47:59;;;;;;;0.80;0.33;;;2.50;87.80;;;;;;5044643;28;20037;-87
2021/01/03 09:50:27;;;;;;;16.03;5.03;;;2.40;87.10;;;;;;4994483;28;20041;-88
2021/01/03 09:53:19;;;;;;;6.53;1.23;;;2.40;87.20;;;;;;5001801;28;20024;-86
2021/01/03 09:55:52;;;;;;;3.37;0.87;;;2.80;86.80;;;;;;5017944;28;20061;-88
2021/01/03 09:58:19;;;;;;;0.93;0.73;;;3.40;85.50;;;;;;4999932;28;20049;-87
2021/01/03 10:00:46;;;;;;;1.10;0.30;;;3.90;84.00;;;;;;4997326;28;20040;-87
2021/01/03 10:03:27;;;;;;;0.33;0.23;;;4.30;82.90;;;;;;5012468;28;20033;-86
2021/01/03 10:05:54;;;;;;;0.00;0.00;;;4.40;82.40;;;;;;5016827;28;20045;-84
2021/01/03 10:08:29;;;;;;;0.00;0.00;;;4.90;82.20;;;;;;5016621;28;20033;-84
2021/01/03 10:10:57;;;;;;;0.50;0.27;;;5.80;80.30;;;;;;5014656;28;20041;-84
2021/01/03 10:13:27;;;;;;;0.10;0.03;;;6.20;78.90;;;;;;5023560;28;20029;-84
2021/01/03 10:15:53;;;;;;;11.03;0.67;;;6.50;78.20;;;;;;5015036;28;20029;-84
2021/01/03 10:18:37;;;;;;;2.13;0.33;;;6.80;77.60;;;;;;5031818;28;20033;-84
2021/01/03 10:21:31;;;;;;;1.23;0.20;;;7.00;77.50;;;;;;5016502;28;20037;-86
2021/01/03 10:24:36;;;;;;;0.40;0.00;;;7.30;78.00;;;;;;5014606;28;20042;-85
2021/01/03 10:27:03;;;;;;;3.80;0.83;;;7.50;77.00;;;;;;4994732;28;20049;-84
2021/01/03 10:29:29;;;;;;;2.47;0.43;;;7.70;76.80;;;;;;5030543;28;20033;-84
2021/01/03 10:31:56;;;;;;;0.63;0.10;;;7.70;77.90;;;;;;5007389;28;20338;-84
2021/01/03 10:34:22;;;;;;;0.47;0.37;;;7.80;77.40;;;;;;5000193;28;20033;-86
2021/01/03 10:36:51;;;;;;;2.13;0.50;;;7.90;77.80;;;;;;5019948;28;20025;-86
2021/01/03 10:39:17;;;;;;;0.27;0.10;;;7.80;77.90;;;;;;5014952;28;20655;-84
2021/01/03 10:41:44;;;;;;;0.97;0.67;;;7.90;78.80;;;;;;5007756;28;20033;-86
2021/01/03 10:44:11;;;;;;;0.20;0.10;;;8.20;78.70;;;;;;5016128;28;20092;-83
2021/01/03 10:46:37;;;;;;;0.70;0.30;;;8.40;78.30;;;;;;5041788;28;20041;-83
2021/01/03 10:49:04;;;;;;;0.08;0.00;;;8.50;78.40;;;;;;5015861;28;20068;-82
2021/01/03 10:51:35;;;;;;;0.40;0.25;;;8.60;78.60;;;;;;5016052;28;20034;-84
2021/01/03 10:54:06;;;;;;;0.22;0.05;;;8.90;78.40;;;;;;5034387;28;20084;-83
2021/01/03 10:56:33;;;;;;;0.25;0.10;;;9.00;78.50;;;;;;4980469;28;20058;-84
2021/01/03 10:58:59;;;;;;;0.40;0.25;;;9.10;78.40;;;;;;4995342;28;20037;-83
2021/01/03 11:01:26;;;;;;;1.55;0.30;;;9.20;78.50;;;;;;4995556;28;20341;-85
2021/01/03 11:03:53;;;;;;;0.73;0.40;;;9.10;78.80;;;;;;4994880;28;20417;-86
2021/01/03 11:06:20;;;;;;;1.70;0.25;;;9.00;79.30;;;;;;4995977;28;20030;-87
2021/01/03 11:08:46;;;;;;;0.90;0.30;;;9.00;79.70;;;;;;5011640;28;20444;-86
2021/01/03 11:11:20;;;;;;;0.85;0.32;;;9.00;79.80;;;;;;4989931;28;20033;-83
2021/01/03 11:13:47;;;;;;;64.43;14.35;;;9.20;79.90;;;;;;5013218;28;20021;-87
2021/01/03 11:16:13;;;;;;;10.13;3.15;;;9.50;79.40;;;;;;4993100;28;20030;-87
2021/01/03 11:18:40;;;;;;;3.60;1.83;;;9.70;79.10;;;;;;4993823;28;20041;-85
2021/01/03 11:21:10;;;;;;;5.32;1.10;;;9.70;78.80;;;;;;4995360;28;20034;-85
2021/01/03 11:23:37;;;;;;;0.20;0.20;;;9.60;78.90;;;;;;5011025;28;20030;-82
2021/01/03 11:26:04;;;;;;;8.73;0.82;;;9.60;79.10;;;;;;5010679;28;20034;-85
2021/01/03 11:28:31;;;;;;;0.95;0.43;;;9.50;79.20;;;;;;5011124;28;20037;-92
2021/01/03 11:30:57;;;;;;;1.25;0.70;;;9.40;79.50;;;;;;5007244;28;20038;-86
2021/01/03 11:33:23;;;;;;;2.92;1.05;;;9.30;79.70;;;;;;5011690;28;20054;-85
2021/01/03 11:35:50;;;;;;;1.58;0.55;;;9.20;80.10;;;;;;4987906;28;20509;-84
2021/01/03 11:38:16;;;;;;;23.67;0.65;;;9.10;80.20;;;;;;5011304;28;20026;-85
2021/01/03 11:40:42;;;;;;;0.38;0.32;;;9.10;80.20;;;;;;4994051;28;20034;-86
2021/01/03 11:43:09;;;;;;;1.33;0.55;;;9.10;80.40;;;;;;5009751;28;20056;-85
2021/01/03 11:45:35;;;;;;;0.80;0.40;;;9.10;80.40;;;;;;4992865;28;20037;-85
2021/01/03 11:48:02;;;;;;;2.35;0.65;;;9.00;80.40;;;;;;5010585;28;20048;-85
2021/01/03 11:50:29;;;;;;;0.80;0.50;;;9.00;80.60;;;;;;4995323;28;20110;-86
2021/01/03 11:52:57;;;;;;;2.58;0.82;;;9.00;80.50;;;;;;4993897;28;20034;-85
2021/01/03 11:55:23;;;;;;;2.53;0.22;;;9.00;80.30;;;;;;4959287;28;917086;-85
2021/01/03 11:57:49;;;;;;;3.60;1.08;;;8.90;80.60;;;;;;4997453;28;20053;-85
2021/01/03 12:00:16;;;;;;;1.80;0.55;;;9.00;80.50;;;;;;4993944;28;20101;-85
2021/01/03 12:02:43;;;;;;;5.63;0.95;;;8.90;80.40;;;;;;4993549;28;20046;-85
2021/01/03 12:05:18;;;;;;;5.78;1.23;;;8.90;81.40;;;;;;5005404;28;20033;-85
2021/01/03 12:07:45;;;;;;;1.13;0.57;;;8.90;80.60;;;;;;4984775;28;20049;-86
2021/01/03 12:10:12;;;;;;;4.78;0.70;;;8.80;80.60;;;;;;4995899;28;20033;-87
2021/01/03 12:12:38;;;;;;;0.63;0.50;;;8.80;80.70;;;;;;4995557;28;20425;-88
2021/01/03 12:15:05;;;;;;;3.53;0.73;;;8.70;80.90;;;;;;4992955;28;20041;-88
2021/01/03 12:17:32;;;;;;;3.28;0.30;;;8.70;81.20;;;;;;4994748;28;20037;-88
2021/01/03 12:19:58;;;;;;;0.50;0.30;;;9.00;81.00;;;;;;4994290;28;20026;-87
2021/01/03 12:22:25;;;;;;;0.77;0.40;;;9.10;80.60;;;;;;4994198;28;20069;-87
2021/01/03 12:24:51;;;;;;;0.77;0.38;;;9.20;80.50;;;;;;4995941;28;20033;-87
2021/01/03 12:27:19;;;;;;;0.93;0.40;;;9.20;80.70;;;;;;5011602;28;20038;-88
2021/01/03 12:29:45;;;;;;;2.15;0.57;;;9.10;80.80;;;;;;4992448;28;20035;-88
2021/01/03 12:32:12;;;;;;;4.93;0.98;;;9.20;80.90;;;;;;4991650;28;20042;-86
2021/01/03 12:34:39;;;;;;;2.05;1.02;;;9.30;80.70;;;;;;4975081;28;20038;-86
2021/01/03 12:37:09;;;;;;;4.38;0.65;;;9.40;80.80;;;;;;4992425;28;20034;-86
2021/01/03 12:39:36;;;;;;;4.25;0.98;;;9.40;80.90;;;;;;4975456;28;20042;-86
2021/01/03 12:42:03;;;;;;;0.63;0.20;;;9.50;81.00;;;;;;4975098;28;20544;-86
2021/01/03 12:44:29;;;;;;;2.85;0.52;;;9.50;80.80;;;;;;4957568;28;20464;-86
2021/01/03 12:47:00;;;;;;;2.35;0.47;;;9.40;81.30;;;;;;4985950;28;20026;-87
2021/01/03 12:49:27;;;;;;;14.10;1.63;;;9.30;81.80;;;;;;5010888;28;20060;-86
2021/01/03 12:51:53;;;;;;;2.72;0.73;;;9.40;81.90;;;;;;5011515;28;20045;-87
2021/01/03 12:54:20;;;;;;;2.55;0.88;;;9.30;82.00;;;;;;5015060;28;20032;-86
2021/01/03 12:56:47;;;;;;;3.22;0.70;;;9.30;82.40;;;;;;5038307;28;20033;-87
2021/01/03 12:59:13;;;;;;;2.85;1.00;;;9.10;82.40;;;;;;5037805;28;20037;-89
2021/01/03 13:01:40;;;;;;;2.28;1.25;;;8.90;83.30;;;;;;5029453;28;20033;-88
2021/01/03 13:04:07;;;;;;;0.88;0.32;;;8.80;83.80;;;;;;5040502;28;20025;-88
2021/01/03 13:06:34;;;;;;;0.30;0.22;;;8.80;83.80;;;;;;5039817;28;20067;-86
2021/01/03 13:09:02;;;;;;;7.72;0.98;;;8.80;83.90;;;;;;5029830;28;20034;-89
2021/01/03 13:11:28;;;;;;;13.90;0.98;;;8.70;84.20;;;;;;5056041;28;20025;-87
2021/01/03 13:13:55;;;;;;;4.35;0.90;;;8.60;84.60;;;;;;5038682;28;20049;-88
2021/01/03 13:16:21;;;;;;;0.88;0.55;;;8.70;84.30;;;;;;5038804;28;20029;-88
2021/01/03 13:18:47;;;;;;;3.78;0.38;;;8.60;84.60;;;;;;5038548;28;20033;-88
2021/01/03 13:21:14;;;;;;;0.95;0.52;;;8.80;84.30;;;;;;5036063;28;20042;-86